createdAt,value
2022-12-22T00:02:39.394Z,98900.13
2022-12-22T00:05:37.172Z,98904.44
2022-12-22T00:08:25.023Z,98908.69
2022-12-22T00:11:14.675Z,98912.09
2022-12-22T00:14:05.679Z,98916.38
2022-12-22T00:16:56.184Z,98912.06
2022-12-22T00:19:44.543Z,98910.34
2022-12-22T00:22:43.753Z,98922.38
2022-12-22T00:25:36.696Z,98917.25
2022-12-22T00:28:33.273Z,98911.22
2022-12-22T00:31:20.994Z,98906.97
2022-12-22T00:34:09.093Z,98909.53
2022-12-22T00:36:56.914Z,98911.19
2022-12-22T00:39:45.148Z,98917.22
2022-12-22T00:42:32.981Z,98911.19
2022-12-22T00:45:21.351Z,98919.75
2022-12-22T00:48:08.997Z,98916.34
2022-12-22T00:50:57.328Z,98923.22
2022-12-22T00:53:45.200Z,98924.94
2022-12-22T00:56:33.876Z,98926.69
2022-12-22T00:59:22.651Z,98920.69
2022-12-22T01:02:10.615Z,98929.25
2022-12-22T01:04:58.335Z,98934.41
2022-12-22T01:07:46.251Z,98933.50
2022-12-22T01:10:34.377Z,98940.38
2022-12-22T01:13:21.969Z,98936.97
2022-12-22T01:16:10.122Z,98935.22
2022-12-22T01:18:57.846Z,98940.34
2022-12-22T01:21:45.561Z,98935.22
2022-12-22T01:24:35.166Z,98941.25
2022-12-22T01:27:24.330Z,98945.50
2022-12-22T01:30:11.972Z,98948.91
2022-12-22T01:32:59.929Z,98954.94
2022-12-22T01:35:51.655Z,98950.66
2022-12-22T01:38:39.677Z,98954.06
2022-12-22T01:41:34.268Z,98948.97
2022-12-22T01:44:25.208Z,98952.34
2022-12-22T01:47:13.310Z,98953.22
2022-12-22T01:50:03.668Z,98960.91
2022-12-22T01:52:55.662Z,98966.06
2022-12-22T01:55:46.063Z,98971.19
2022-12-22T01:58:52.634Z,98979.75
2022-12-22T02:01:52.955Z,98983.16
2022-12-22T02:04:51.361Z,98990.91
2022-12-22T02:08:13.199Z,98996.03
2022-12-22T02:11:35.609Z,98993.50
2022-12-22T02:15:10.077Z,99004.63
2022-12-22T02:18:40.541Z,99007.16
2022-12-22T02:21:35.271Z,99006.28
2022-12-22T02:24:47.537Z,99010.63
2022-12-22T02:27:37.195Z,99004.56
2022-12-22T02:30:27.560Z,99023.44
2022-12-22T02:33:15.502Z,99013.16
2022-12-22T02:36:19.176Z,99016.63
2022-12-22T02:39:24.344Z,99015.75
2022-12-22T02:42:23.519Z,99012.31
2022-12-22T02:45:47.945Z,99018.31
2022-12-22T02:48:47.328Z,99022.59
2022-12-22T02:51:39.384Z,99027.72
2022-12-22T02:54:28.478Z,99035.41
2022-12-22T02:57:16.464Z,99034.50
2022-12-22T03:00:04.417Z,99040.50
2022-12-22T03:02:52.450Z,99043.94
2022-12-22T03:05:40.455Z,99053.34
2022-12-22T03:08:28.491Z,99048.25
2022-12-22T03:11:48.805Z,99051.72
2022-12-22T03:15:40.839Z,99063.72
2022-12-22T03:18:35.440Z,99068.81
2022-12-22T03:22:10.996Z,99067.13
2022-12-22T03:25:22.755Z,99079.09
2022-12-22T03:28:30.250Z,99073.97
2022-12-22T03:31:12.500Z,99082.53
2022-12-22T03:34:24.769Z,99086.81
2022-12-22T03:36:58.090Z,99085.09
2022-12-22T03:39:51.428Z,99097.97
2022-12-22T03:43:23.606Z,99104.47
2022-12-22T03:46:20.755Z,99099.59
2022-12-22T03:49:13.720Z,99106.44
2022-12-22T03:51:46.367Z,99114.97
2022-12-22T03:54:17.391Z,99113.41
2022-12-22T03:56:48.359Z,99112.38
2022-12-22T03:59:18.484Z,99107.25
2022-12-22T04:01:51.007Z,99100.47
2022-12-22T04:04:23.242Z,99097.94
2022-12-22T04:06:53.167Z,99091.94
2022-12-22T04:09:23.890Z,99099.56
2022-12-22T04:12:11.622Z,99103.03
2022-12-22T04:14:41.372Z,99111.69
2022-12-22T04:17:11.042Z,99121.97
2022-12-22T04:19:40.789Z,99118.53
2022-12-22T04:22:10.438Z,99109.91
2022-12-22T04:24:39.969Z,99120.22
2022-12-22T04:27:09.627Z,99115.13
2022-12-22T04:29:39.145Z,99115.16
2022-12-22T04:32:11.108Z,99122.00
2022-12-22T04:34:40.669Z,99135.50
2022-12-22T04:37:16.715Z,99132.84
2022-12-22T04:39:49.385Z,99143.69
2022-12-22T04:42:19.097Z,99142.25
2022-12-22T04:44:49.530Z,99147.28
2022-12-22T04:47:24.126Z,99142.19
2022-12-22T04:49:56.564Z,99147.31
2022-12-22T04:52:26.599Z,99148.47
2022-12-22T04:54:56.149Z,99146.78
2022-12-22T04:57:28.799Z,99144.03
2022-12-22T04:59:58.727Z,99157.88
2022-12-22T05:02:28.349Z,99154.47
2022-12-22T05:04:58.147Z,99148.47
2022-12-22T05:07:27.940Z,99145.94
2022-12-22T05:09:57.432Z,99135.75
2022-12-22T05:12:56.052Z,99138.31
2022-12-22T05:15:31.853Z,99136.69
2022-12-22T05:18:02.488Z,99136.72
2022-12-22T05:20:32.290Z,99129.75
2022-12-22T05:23:02.103Z,99127.13
2022-12-22T05:25:35.346Z,99128.97
2022-12-22T05:28:06.091Z,99134.97
2022-12-22T05:30:35.936Z,99131.44
2022-12-22T05:33:05.530Z,99132.31
2022-12-22T05:35:35.338Z,99128.84
2022-12-22T05:38:04.827Z,99127.06
2022-12-22T05:40:34.435Z,99120.41
2022-12-22T05:43:04.288Z,99121.38
2022-12-22T05:45:34.046Z,99125.69
2022-12-22T05:48:03.526Z,99127.41
2022-12-22T05:50:33.913Z,99123.13
2022-12-22T05:53:08.033Z,99104.22
2022-12-22T05:55:37.746Z,99112.81
2022-12-22T05:58:07.560Z,99114.44
2022-12-22T06:00:37.331Z,99106.75
2022-12-22T06:03:07.428Z,99105.91
2022-12-22T06:05:37.319Z,99102.47
2022-12-22T06:08:10.334Z,99099.94
2022-12-22T06:10:58.337Z,99089.66
2022-12-22T06:13:28.279Z,99080.25
2022-12-22T06:15:57.685Z,99081.06
2022-12-22T06:18:27.498Z,99076.75
2022-12-22T06:20:57.997Z,99078.53
2022-12-22T06:23:27.613Z,99072.50
2022-12-22T06:26:03.391Z,99069.94
2022-12-22T06:28:36.655Z,99065.63
2022-12-22T06:31:06.707Z,99055.34
2022-12-22T06:33:36.993Z,99055.34
2022-12-22T06:36:09.161Z,99051.03
2022-12-22T06:38:38.780Z,99045.06
2022-12-22T06:41:08.499Z,99043.34
2022-12-22T06:43:38.228Z,99037.31
2022-12-22T06:46:07.774Z,99033.91
2022-12-22T06:48:37.520Z,99032.19
2022-12-22T06:51:07.194Z,99042.47
2022-12-22T06:53:36.835Z,99042.47
2022-12-22T06:56:06.700Z,99037.34
2022-12-22T06:58:36.241Z,99036.47
2022-12-22T07:01:08.948Z,99038.19
2022-12-22T07:03:38.660Z,99033.91
2022-12-22T07:06:08.956Z,99030.47
2022-12-22T07:08:39.728Z,99023.59
2022-12-22T07:11:12.892Z,99017.59
2022-12-22T07:13:43.337Z,99010.72
2022-12-22T07:16:14.051Z,99005.59
2022-12-22T07:18:48.002Z,99007.28
2022-12-22T07:21:17.925Z,99010.69
2022-12-22T07:23:53.859Z,99001.25
2022-12-22T07:26:48.337Z,99002.13
2022-12-22T07:29:18.468Z,98996.97
2022-12-22T07:31:58.794Z,98995.31
2022-12-22T07:34:33.045Z,98990.16
2022-12-22T07:37:07.196Z,98978.09
2022-12-22T07:39:37.175Z,98972.94
2022-12-22T07:42:24.799Z,98968.69
2022-12-22T07:44:54.709Z,98965.22
2022-12-22T07:47:27.330Z,98967.88
2022-12-22T07:50:17.935Z,98959.19
2022-12-22T07:53:00.700Z,98954.94
2022-12-22T07:55:33.127Z,98941.28
2022-12-22T07:58:03.718Z,98933.56
2022-12-22T08:00:33.414Z,98942.84
2022-12-22T08:03:03.731Z,98929.16
2022-12-22T08:05:33.526Z,98928.38
2022-12-22T08:08:02.790Z,98923.22
2022-12-22T08:10:33.977Z,98924.84
2022-12-22T08:13:03.681Z,98925.72
2022-12-22T08:15:33.337Z,98928.25
2022-12-22T08:18:03.365Z,98923.94
2022-12-22T08:20:32.909Z,98921.41
2022-12-22T08:23:02.516Z,98921.38
2022-12-22T08:25:33.833Z,98921.38
2022-12-22T08:28:04.744Z,98922.22
2022-12-22T08:30:36.069Z,98911.03
2022-12-22T08:33:06.497Z,98905.91
2022-12-22T08:35:36.142Z,98905.88
2022-12-22T08:38:09.498Z,98907.53
2022-12-22T08:40:39.767Z,98906.53
2022-12-22T08:43:11.886Z,98905.69
2022-12-22T08:45:43.611Z,98901.66
2022-12-22T08:48:13.504Z,98899.19
2022-12-22T08:50:43.160Z,98905.09
2022-12-22T08:53:30.067Z,98892.00
2022-12-22T08:56:02.449Z,98890.56
2022-12-22T08:58:35.303Z,98891.38
2022-12-22T09:01:04.970Z,98890.47
2022-12-22T09:03:34.817Z,98877.44
2022-12-22T09:06:05.095Z,98884.28
2022-12-22T09:08:35.229Z,98881.97
2022-12-22T09:11:06.272Z,98876.66
2022-12-22T09:13:36.037Z,98866.34
2022-12-22T09:16:09.344Z,98868.78
2022-12-22T09:18:39.407Z,98868.00
2022-12-22T09:21:12.401Z,98871.56
2022-12-22T09:23:42.844Z,98859.38
2022-12-22T09:26:15.952Z,98859.50
2022-12-22T09:28:50.076Z,98861.22
2022-12-22T09:31:24.609Z,98856.03
2022-12-22T09:33:55.047Z,98854.38
2022-12-22T09:36:27.420Z,98857.97
2022-12-22T09:38:57.264Z,98846.78
2022-12-22T09:41:35.999Z,98847.56
2022-12-22T09:44:12.991Z,98837.28
2022-12-22T09:46:42.913Z,98833.13
2022-12-22T09:49:18.462Z,98833.88
2022-12-22T09:52:02.445Z,98837.25
2022-12-22T09:54:32.559Z,98832.28
2022-12-22T09:57:03.978Z,98831.28
2022-12-22T09:59:36.056Z,98832.22
2022-12-22T10:02:23.911Z,98821.00
2022-12-22T10:05:09.468Z,98817.63
2022-12-22T10:07:43.279Z,98821.88
2022-12-22T10:10:31.451Z,98815.81
2022-12-22T10:13:03.517Z,98814.94
2022-12-22T10:15:42.721Z,98819.16
2022-12-22T10:18:19.556Z,98817.44
2022-12-22T10:21:24.830Z,98815.09
2022-12-22T10:23:55.109Z,98817.59
2022-12-22T10:26:31.512Z,98819.31
2022-12-22T10:29:09.274Z,98816.81
2022-12-22T10:31:58.116Z,98815.78
2022-12-22T10:34:28.270Z,98815.09
2022-12-22T10:37:06.726Z,98809.94
2022-12-22T10:39:38.358Z,98814.13
2022-12-22T10:42:15.445Z,98808.09
2022-12-22T10:44:51.197Z,98802.91
2022-12-22T10:47:27.515Z,98808.13
2022-12-22T10:52:33.038Z,98806.41
2022-12-22T10:55:28.984Z,98806.56
2022-12-22T10:58:18.721Z,98794.44
2022-12-22T11:01:05.596Z,98799.63
2022-12-22T11:03:35.846Z,98792.88
2022-12-22T11:06:14.913Z,98788.63
2022-12-22T11:08:50.994Z,98779.19
2022-12-22T11:11:47.268Z,98780.81
2022-12-22T11:14:34.361Z,98776.47
2022-12-22T11:17:12.112Z,98774.91
2022-12-22T11:20:00.306Z,98768.88
2022-12-22T11:22:39.567Z,98774.16
2022-12-22T11:25:21.157Z,98772.44
2022-12-22T11:28:28.989Z,98779.16
2022-12-22T11:31:04.870Z,98780.88
2022-12-22T11:33:52.814Z,98777.56
2022-12-22T11:36:57.613Z,98772.44
2022-12-22T11:39:59.968Z,98772.44
2022-12-22T11:43:04.341Z,98770.66
2022-12-22T11:45:43.643Z,98769.88
2022-12-22T11:48:46.339Z,98763.91
2022-12-22T11:51:36.038Z,98770.78
2022-12-22T11:54:24.079Z,98765.63
2022-12-22T11:57:12.058Z,98763.03
2022-12-22T11:59:58.549Z,98758.78
2022-12-22T12:02:49.456Z,98762.19
2022-12-22T12:05:34.318Z,98763.91
2022-12-22T12:08:12.078Z,98768.22
2022-12-22T12:10:54.594Z,98763.06
2022-12-22T12:13:48.967Z,98775.03
2022-12-22T12:16:56.114Z,98770.78
2022-12-22T12:19:28.980Z,98775.03
2022-12-22T12:22:01.782Z,98777.63
2022-12-22T12:24:33.991Z,98769.94
2022-12-22T12:27:28.295Z,98769.03
2022-12-22T12:30:39.789Z,98768.22
2022-12-22T12:33:25.115Z,98773.34
2022-12-22T12:36:25.580Z,98771.63
2022-12-22T12:39:22.629Z,98770.75
2022-12-22T12:42:03.004Z,98769.91
2022-12-22T12:44:38.684Z,98764.75
2022-12-22T12:47:23.253Z,98768.19
2022-12-22T12:49:59.226Z,98772.47
2022-12-22T12:52:49.801Z,98779.31
2022-12-22T12:55:33.386Z,98774.19
2022-12-22T12:58:07.942Z,98763.91
2022-12-22T13:00:43.130Z,98767.34
2022-12-22T13:06:51.120Z,98763.91
2022-12-22T13:09:50.601Z,98766.50
2022-12-22T13:12:50.124Z,98774.16
2022-12-22T13:15:30.177Z,98778.47
2022-12-22T13:18:01.550Z,98778.47
2022-12-22T13:20:39.278Z,98778.47
2022-12-22T13:23:17.344Z,98782.78
2022-12-22T13:25:59.856Z,98782.75
2022-12-22T13:28:31.277Z,98783.63
2022-12-22T13:31:15.777Z,98786.19
2022-12-22T13:33:47.396Z,98796.44
2022-12-22T13:36:28.710Z,98798.16
2022-12-22T13:39:08.109Z,98794.75
2022-12-22T13:41:42.817Z,98788.75
2022-12-22T13:44:33.605Z,98796.41
2022-12-22T13:47:08.820Z,98801.59
2022-12-22T13:50:10.373Z,98797.31
2022-12-22T13:52:30.092Z,98800.72
2022-12-22T13:54:59.637Z,98802.47
2022-12-22T13:57:35.993Z,98805.00
2022-12-22T14:00:07.584Z,98805.88
2022-12-22T14:02:39.174Z,98801.56
2022-12-22T14:05:16.026Z,98794.75
2022-12-22T14:08:02.957Z,98802.44
2022-12-22T14:10:43.544Z,98821.28
2022-12-22T14:13:17.914Z,98818.72
2022-12-22T14:15:48.891Z,98810.16
2022-12-22T14:18:23.125Z,98801.59
2022-12-22T14:20:53.309Z,98807.59
2022-12-22T14:23:31.675Z,98818.75
2022-12-22T14:26:04.066Z,98822.97
2022-12-22T14:28:51.349Z,98825.56
2022-12-22T14:31:21.570Z,98831.56
2022-12-22T14:34:06.396Z,98839.28
2022-12-22T14:36:54.069Z,98835.00
2022-12-22T14:39:34.439Z,98833.22
2022-12-22T14:42:07.173Z,98837.56
2022-12-22T14:44:40.444Z,98835.00
2022-12-22T14:47:21.449Z,98832.41
2022-12-22T14:50:06.072Z,98823.84
2022-12-22T14:52:52.315Z,98827.28
2022-12-22T14:55:45.137Z,98825.56
2022-12-22T14:58:19.767Z,98828.94
2022-12-22T15:01:10.957Z,98834.13
2022-12-22T15:03:42.121Z,98839.28
2022-12-22T15:06:30.316Z,98830.69
2022-12-22T15:09:13.129Z,98827.25
2022-12-22T15:11:45.089Z,98834.06
2022-12-22T15:14:24.218Z,98830.66
2022-12-22T15:16:59.739Z,98822.13
2022-12-22T15:19:32.990Z,98832.41
2022-12-22T15:22:03.377Z,98831.53
2022-12-22T15:24:33.718Z,98834.09
2022-12-22T15:27:04.148Z,98823.84
2022-12-22T15:29:34.032Z,98830.69
2022-12-22T15:32:04.309Z,98830.66
2022-12-22T15:34:35.084Z,98819.53
2022-12-22T15:37:05.412Z,98819.53
2022-12-22T15:39:35.744Z,98814.44
2022-12-22T15:42:06.312Z,98826.34
2022-12-22T15:44:38.892Z,98822.84
2022-12-22T15:47:14.102Z,98824.66
2022-12-22T15:49:44.499Z,98829.78
2022-12-22T15:52:15.938Z,98829.63
2022-12-22T15:54:46.318Z,98833.16
2022-12-22T15:57:18.456Z,98833.88
2022-12-22T15:59:51.516Z,98828.88
2022-12-22T16:02:22.994Z,98831.41
2022-12-22T16:04:53.408Z,98833.97
2022-12-22T16:07:25.450Z,98834.03
2022-12-22T16:09:55.818Z,98840.94
2022-12-22T16:12:26.744Z,98830.59
2022-12-22T16:15:00.094Z,98826.31
2022-12-22T16:17:36.101Z,98834.59
2022-12-22T16:20:06.919Z,98821.84
2022-12-22T16:22:39.564Z,98823.75
2022-12-22T16:25:18.191Z,98820.31
2022-12-22T16:27:50.824Z,98820.31
2022-12-22T16:30:24.923Z,98821.25
2022-12-22T16:32:56.952Z,98831.44
2022-12-22T16:35:30.109Z,98827.16
2022-12-22T16:38:04.613Z,98826.28
2022-12-22T16:40:41.431Z,98827.19
2022-12-22T16:46:19.273Z,98827.00
2022-12-22T16:48:54.750Z,98835.72
2022-12-22T16:51:36.069Z,98833.16
2022-12-22T16:54:06.732Z,98839.09
2022-12-22T16:56:37.149Z,98838.25
2022-12-22T16:59:10.482Z,98843.41
2022-12-22T17:02:02.329Z,98850.31
2022-12-22T17:04:35.083Z,98847.69
2022-12-22T17:07:08.895Z,98849.38
2022-12-22T17:09:48.446Z,98850.28
2022-12-22T17:12:26.424Z,98855.31
2022-12-22T17:14:58.206Z,98857.03
2022-12-22T17:17:35.474Z,98856.28
2022-12-22T17:20:09.596Z,98855.41
2022-12-22T17:22:44.737Z,98858.84
2022-12-22T17:25:25.855Z,98843.47
2022-12-22T17:28:00.052Z,98840.84
2022-12-22T17:30:30.799Z,98841.66
2022-12-22T17:33:03.033Z,98844.31
2022-12-22T17:35:35.977Z,98841.72
2022-12-22T17:38:06.339Z,98833.97
2022-12-22T17:40:37.989Z,98830.44
2022-12-22T17:43:08.259Z,98830.53
2022-12-22T17:45:39.144Z,98832.28
2022-12-22T17:48:10.027Z,98832.28
2022-12-22T17:50:41.180Z,98824.59
2022-12-22T17:53:21.218Z,98827.19
2022-12-22T17:56:09.420Z,98829.69
2022-12-22T17:58:39.989Z,98827.09
2022-12-22T18:01:33.492Z,98833.88
2022-12-22T18:04:03.280Z,98828.75
2022-12-22T18:06:37.131Z,98819.47
2022-12-22T18:09:17.259Z,98820.28
2022-12-22T18:11:47.139Z,98827.16
2022-12-22T18:14:19.925Z,98829.69
2022-12-22T18:16:49.527Z,98830.56
2022-12-22T18:19:19.451Z,98832.28
2022-12-22T18:21:49.004Z,98829.75
2022-12-22T18:24:20.771Z,98825.53
2022-12-22T18:26:50.359Z,98829.78
2022-12-22T18:29:20.692Z,98831.50
2022-12-22T18:31:50.108Z,98832.31
2022-12-22T18:34:19.677Z,98830.59
2022-12-22T18:36:49.809Z,98824.66
2022-12-22T18:39:21.496Z,98820.38
2022-12-22T18:41:56.033Z,98813.50
2022-12-22T18:44:26.985Z,98812.66
2022-12-22T18:46:56.923Z,98813.50
2022-12-22T18:49:26.485Z,98816.94
2022-12-22T18:51:56.051Z,98811.78
2022-12-22T18:54:34.367Z,98809.25
2022-12-22T18:57:04.795Z,98809.25
2022-12-22T18:59:34.380Z,98800.69
2022-12-22T19:02:28.185Z,98799.84
2022-12-22T19:04:58.476Z,98798.09
2022-12-22T19:07:31.232Z,98798.97
2022-12-22T19:10:00.701Z,98791.28
2022-12-22T19:12:30.513Z,98789.56
2022-12-22T19:15:06.550Z,98794.69
2022-12-22T19:17:36.279Z,98787.78
2022-12-22T19:20:06.624Z,98791.25
2022-12-22T19:22:36.470Z,98776.72
2022-12-22T19:25:06.182Z,98770.72
2022-12-22T19:27:35.756Z,98774.94
2022-12-22T19:30:05.804Z,98773.31
2022-12-22T19:32:42.823Z,98755.19
2022-12-22T19:35:23.415Z,98762.13
2022-12-22T19:37:54.597Z,98768.13
2022-12-22T19:40:29.600Z,98769.00
2022-12-22T19:43:01.811Z,98758.66
2022-12-22T19:45:37.912Z,98756.16
2022-12-22T19:48:23.533Z,98743.34
2022-12-22T19:50:56.436Z,98734.72
2022-12-22T19:53:27.600Z,98731.22
2022-12-22T19:55:58.872Z,98739.91
2022-12-22T19:58:39.046Z,98747.63
2022-12-22T20:01:12.774Z,98742.47
2022-12-22T20:03:42.424Z,98731.31
2022-12-22T20:06:11.964Z,98732.16
2022-12-22T20:08:41.479Z,98746.72
2022-12-22T20:11:21.234Z,98753.56
2022-12-22T20:13:51.139Z,98747.59
2022-12-22T20:16:20.763Z,98743.34
2022-12-22T20:18:50.326Z,98731.25
2022-12-22T20:21:31.828Z,98730.50
2022-12-22T20:24:02.607Z,98729.63
2022-12-22T20:26:32.196Z,98733.06
2022-12-22T20:29:01.823Z,98745.03
2022-12-22T20:31:31.566Z,98744.88
2022-12-22T20:34:02.187Z,98742.41
2022-12-22T20:36:33.079Z,98742.44
2022-12-22T20:39:03.123Z,98745.88
2022-12-22T20:41:33.072Z,98751.84
2022-12-22T20:44:03.801Z,98743.28
2022-12-22T20:46:34.342Z,98745.59
2022-12-22T20:49:05.779Z,98747.38
2022-12-22T20:51:35.947Z,98740.63
2022-12-22T20:54:05.533Z,98741.41
2022-12-22T20:56:38.827Z,98743.22
2022-12-22T20:59:34.501Z,98743.03
2022-12-22T21:02:05.311Z,98749.94
2022-12-22T21:04:35.073Z,98746.56
2022-12-22T21:07:04.352Z,98747.16
2022-12-22T21:09:33.699Z,98740.31
2022-12-22T21:12:03.304Z,98739.47
2022-12-22T21:14:33.365Z,98748.00
2022-12-22T21:17:04.011Z,98738.78
2022-12-22T21:19:33.450Z,98735.38
2022-12-22T21:22:02.952Z,98738.75
2022-12-22T21:24:32.717Z,98742.88
2022-12-22T21:27:02.382Z,98742.88
2022-12-22T21:29:32.306Z,98749.91
2022-12-22T21:32:03.235Z,98758.41
2022-12-22T21:34:32.584Z,98752.03
2022-12-22T21:37:04.340Z,98739.44
2022-12-22T21:39:46.856Z,98730.13
2022-12-22T21:42:17.965Z,98723.28
2022-12-22T21:44:47.745Z,98732.72
2022-12-22T21:47:20.043Z,98730.19
2022-12-22T21:49:49.507Z,98725.03
2022-12-22T21:52:19.150Z,98725.09
2022-12-22T21:54:49.013Z,98722.50
2022-12-22T21:57:18.529Z,98717.41
2022-12-22T21:59:47.825Z,98722.47
2022-12-22T22:02:19.450Z,98722.50
2022-12-22T22:04:54.451Z,98722.16
2022-12-22T22:07:25.479Z,98734.38
2022-12-22T22:09:55.133Z,98736.13
2022-12-22T22:12:34.123Z,98732.72
2022-12-22T22:15:04.192Z,98731.00
2022-12-22T22:17:34.129Z,98743.03
2022-12-22T22:20:04.311Z,98761.78
2022-12-22T22:22:33.858Z,98753.22
2022-12-22T22:25:03.780Z,98753.09
2022-12-22T22:27:33.177Z,98750.69
2022-12-22T22:30:03.084Z,98751.47
2022-12-22T22:32:32.481Z,98750.66
2022-12-22T22:35:01.815Z,98744.75
2022-12-22T22:37:31.775Z,98744.75
2022-12-22T22:40:00.996Z,98738.81
2022-12-22T22:42:30.579Z,98742.19
2022-12-22T22:45:00.063Z,98736.25
2022-12-22T22:47:29.817Z,98728.56
2022-12-22T22:49:59.955Z,98726.81
2022-12-22T22:52:30.260Z,98734.53
2022-12-22T22:54:59.836Z,98737.81
2022-12-22T22:57:29.505Z,98736.16
2022-12-22T22:59:58.998Z,98728.16
2022-12-22T23:02:28.978Z,98739.47
2022-12-22T23:04:58.806Z,98733.38
2022-12-22T23:07:28.734Z,98742.00
2022-12-22T23:09:58.243Z,98742.84
2022-12-22T23:12:28.170Z,98736.88
2022-12-22T23:14:57.591Z,98742.75
2022-12-22T23:17:27.151Z,98746.19
2022-12-22T23:19:56.923Z,98744.44
2022-12-22T23:22:26.841Z,98749.63
2022-12-22T23:24:56.219Z,98754.00
2022-12-22T23:27:25.911Z,98751.34
2022-12-22T23:29:56.284Z,98749.63
2022-12-22T23:32:25.959Z,98743.78
2022-12-22T23:34:55.463Z,98743.78
2022-12-22T23:37:25.199Z,98734.34
2022-12-22T23:39:56.117Z,98743.75
2022-12-22T23:42:31.667Z,98733.53
2022-12-22T23:45:01.241Z,98734.31
2022-12-22T23:47:31.769Z,98725.78
2022-12-22T23:50:01.518Z,98730.94
2022-12-22T23:52:30.789Z,98730.94
2022-12-22T23:55:00.408Z,98735.16
2022-12-22T23:57:29.838Z,98741.31
2022-12-22T23:59:59.417Z,98749.91
